Home > Products > Valid Products > TAF

000
FTUS45 KGJT 021737
TAFGJT
TAF
KGJT 021737Z 0218/0318 12006KT P6SM SKC
     FM021900 29008KT P6SM SKC
     FM030200 07004KT P6SM SKC
     FM030800 11012KT P6SM SKC=



000
FTUS45 KGJT 021737
TAFGJT
TAF
KGJT 021737Z 0218/0318 12006KT P6SM SKC
     FM021900 29008KT P6SM SKC
     FM030200 07004KT P6SM SKC
     FM030800 11012KT P6SM SKC=



000
FTUS45 KGJT 021120
TAFGJT
TAF
KGJT 021120Z 0212/0312 12006KT P6SM SKC
     FM021900 29007KT P6SM SKC
     FM030600 11012KT P6SM SKC=



000
FTUS45 KGJT 021120
TAFGJT
TAF
KGJT 021120Z 0212/0312 12006KT P6SM SKC
     FM021900 29007KT P6SM SKC
     FM030600 11012KT P6SM SKC=



000
FTUS45 KGJT 020520
TAFGJT
TAF
KGJT 020520Z 0206/0306 07005KT P6SM SKC
     FM020900 12006KT P6SM SKC
     FM021900 29007KT P6SM SKC=



000
FTUS45 KGJT 012327
TAFGJT
TAF
KGJT 012327Z 0200/0224 29008KT P6SM SKC
     FM020200 07005KT P6SM SKC
     FM020900 12006KT P6SM SKC
     FM021900 29007KT P6SM SKC=



000
FTUS45 KGJT 012327
TAFGJT
TAF
KGJT 012327Z 0200/0224 29008KT P6SM SKC
     FM020200 07005KT P6SM SKC
     FM020900 12006KT P6SM SKC
     FM021900 29007KT P6SM SKC=



000
FTUS45 KGJT 011720
TAFGJT
TAF
KGJT 011720Z 0118/0218 14006KT P6SM SKC
     FM012000 29008KT P6SM SKC
     FM020200 07005KT P6SM SKC
     FM020900 12007KT P6SM SKC=



000
FTUS45 KGJT 011720
TAFGJT
TAF
KGJT 011720Z 0118/0218 14006KT P6SM SKC
     FM012000 29008KT P6SM SKC
     FM020200 07005KT P6SM SKC
     FM020900 12007KT P6SM SKC=



000
FTUS45 KGJT 011120
TAFGJT
TAF
KGJT 011120Z 0112/0212 09006KT P6SM SKC
     FM011300 14006KT P6SM SKC
     FM012000 29008KT P6SM SKC
     FM020200 07005KT P6SM SKC
     FM020900 11005KT P6SM SKC=



000
FTUS45 KGJT 011120
TAFGJT
TAF
KGJT 011120Z 0112/0212 09006KT P6SM SKC
     FM011300 14006KT P6SM SKC
     FM012000 29008KT P6SM SKC
     FM020200 07005KT P6SM SKC
     FM020900 11005KT P6SM SKC=



000
FTUS45 KGJT 010520
TAFGJT
TAF
KGJT 010520Z 0106/0206 36006KT P6SM SKC
     FM010800 09006KT P6SM SKC
     FM011100 14006KT P6SM SKC
     FM012000 29008KT P6SM SKC=



000
FTUS45 KGJT 010520
TAFGJT
TAF
KGJT 010520Z 0106/0206 36006KT P6SM SKC
     FM010800 09006KT P6SM SKC
     FM011100 14006KT P6SM SKC
     FM012000 29008KT P6SM SKC=



000
FTUS45 KGJT 312320
TAFGJT
TAF
KGJT 312320Z 0100/0124 27015G24KT P6SM FEW130
     FM010100 33011KT P6SM FEW130
     FM010400 35005KT P6SM SKC
     FM010800 09006KT P6SM SKC
     FM011100 14006KT P6SM SKC=



000
FTUS45 KGJT 312320
TAFGJT
TAF
KGJT 312320Z 0100/0124 27015G24KT P6SM FEW130
     FM010100 33011KT P6SM FEW130
     FM010400 35005KT P6SM SKC
     FM010800 09006KT P6SM SKC
     FM011100 14006KT P6SM SKC=



000
FTUS45 KGJT 312050 AAB
TAFGJT
TAF AMD
KGJT 312050Z 3121/0118 27018G30KT P6SM SCT120
     FM010100 33008KT P6SM FEW120
     FM010600 09006KT P6SM SKC
     FM011400 14008KT P6SM SKC=



000
FTUS45 KGJT 312050 AAB
TAFGJT
TAF AMD
KGJT 312050Z 3121/0118 27018G30KT P6SM SCT120
     FM010100 33008KT P6SM FEW120
     FM010600 09006KT P6SM SKC
     FM011400 14008KT P6SM SKC=



000
FTUS45 KGJT 311733
TAFGJT
TAF
KGJT 311733Z 3118/0118 29008KT P6SM SCT120
     FM312000 29015G25KT P6SM SCT120
     FM010100 33008KT P6SM FEW120
     FM010600 09006KT P6SM SKC
     FM011400 14008KT P6SM SKC=



000
FTUS45 KGJT 311733
TAFGJT
TAF
KGJT 311733Z 3118/0118 29008KT P6SM SCT120
     FM312000 29015G25KT P6SM SCT120
     FM010100 33008KT P6SM FEW120
     FM010600 09006KT P6SM SKC
     FM011400 14008KT P6SM SKC=



000
FTUS45 KGJT 311449 AAB
TAFGJT
TAF AMD
KGJT 311449Z 3115/0112 14008KT P6SM SCT150 BKN200
     FM311800 22010KT P6SM SCT150 BKN200
     FM312000 29015G25KT P6SM SCT120 BKN200
     FM010200 33004KT P6SM FEW120
     FM010600 09006KT P6SM SKC=



000
FTUS45 KGJT 311124
TAFGJT
TAF
KGJT 311124Z 3112/0112 09010KT P6SM SCT150 BKN200
     FM311500 21010G15KT P6SM SCT120 BKN150
     FM311900 25015G25KT P6SM SCT120 BKN200
     FM010200 33004KT P6SM FEW120
     FM010600 09006KT P6SM SKC=



000
FTUS45 KGJT 311124
TAFGJT
TAF
KGJT 311124Z 3112/0112 09010KT P6SM SCT150 BKN200
     FM311500 21010G15KT P6SM SCT120 BKN150
     FM311900 25015G25KT P6SM SCT120 BKN200
     FM010200 33004KT P6SM FEW120
     FM010600 09006KT P6SM SKC=



000
FTUS45 KGJT 310520
TAFGJT
TAF
KGJT 310520Z 3106/0106 12010KT P6SM SCT150 BKN200
     FM311500 21010G15KT P6SM SCT120 BKN150
     FM311900 25015G25KT P6SM SCT120 SCT200
     FM010200 33004KT P6SM FEW120=



000
FTUS45 KGJT 310520
TAFGJT
TAF
KGJT 310520Z 3106/0106 12010KT P6SM SCT150 BKN200
     FM311500 21010G15KT P6SM SCT120 BKN150
     FM311900 25015G25KT P6SM SCT120 SCT200
     FM010200 33004KT P6SM FEW120=



000
FTUS45 KGJT 302341
TAFGJT
TAF
KGJT 302341Z 3100/3124 30005KT P6SM FEW120 BKN200
     FM310200 10005KT P6SM SCT150 BKN200
     FM310600 12010KT P6SM SCT150 BKN200
     FM311400 13010KT P6SM FEW150 BKN200
     FM311900 25015G25KT P6SM SCT200=



000
FTUS45 KGJT 302341
TAFGJT
TAF
KGJT 302341Z 3100/3124 30005KT P6SM FEW120 BKN200
     FM310200 10005KT P6SM SCT150 BKN200
     FM310600 12010KT P6SM SCT150 BKN200
     FM311400 13010KT P6SM FEW150 BKN200
     FM311900 25015G25KT P6SM SCT200=



    US Dept of Commerce
    National Oceanic and Atmospheric Administration
    National Weather Service
    1325 East West Highway
    Silver Spring, MD 20910
    Page Author: NWS Internet Services Team
Disclaimer
Information Quality
Credits
Glossary
Privacy Policy
Freedom of Information Act (FOIA)
About Us
Career Opportunities